Time;durP1;ratioP1;P1;durP2;ratioP2;P2;SDS_P1;SDS_P2;PMS_P1;PMS_P2;Temp;Humidity;BMP_temperature;BMP_pressure;BME280_temperature;BME280_humidity;BME280_pressure;Samples;Min_cycle;Max_cycle;Signal;HPM_P1;HPM_P2
2022/01/02 00:00:14;;;;;;;0.42;0.42;;;;;;;2.24;67.22;99451.63;1772172;81;21029;-39
2022/01/02 00:02:42;;;;;;;0.78;0.60;;;;;;;2.15;66.51;99464.94;1769075;81;21002;-39
2022/01/02 00:05:12;;;;;;;0.60;0.60;;;;;;;2.09;66.37;99470.69;1764321;79;21162;-39
2022/01/02 00:08:02;;;;;;;0.82;0.70;;;;;;;2.05;66.62;99480.41;1753360;81;20932;-39
2022/01/02 00:10:48;;;;;;;0.42;0.42;;;;;;;2.01;66.57;99488.25;1743478;81;21484;-39
2022/01/02 00:13:28;;;;;;;0.82;0.70;;;;;;;1.99;66.54;99485.06;1761025;80;21002;-39
2022/01/02 00:15:53;;;;;;;0.50;0.40;;;;;;;1.99;66.98;99497.09;1742513;80;21331;-39
2022/01/02 00:18:27;;;;;;;0.60;0.60;;;;;;;1.99;67.11;99497.64;1750393;81;20961;-39
2022/01/02 00:20:56;;;;;;;0.80;0.60;;;;;;;1.97;66.85;99514.00;1746868;80;21016;-39
2022/01/02 00:23:29;;;;;;;0.50;0.50;;;;;;;1.93;65.68;99514.36;1767253;80;21025;-39
2022/01/02 00:25:55;;;;;;;0.70;0.62;;;;;;;1.90;65.83;99516.27;1749931;80;20938;-39
2022/01/02 00:28:23;;;;;;;0.53;0.50;;;;;;;1.89;65.11;99513.34;1769478;81;21004;-39
2022/01/02 00:30:50;;;;;;;0.68;0.53;;;;;;;1.87;64.60;99515.55;1760278;81;21107;-39
2022/01/02 00:33:19;;;;;;;0.75;0.68;;;;;;;1.85;64.29;99523.05;1761877;81;21524;-39
2022/01/02 00:35:47;;;;;;;0.50;0.50;;;;;;;1.82;64.24;99518.31;1766873;81;21278;-39
2022/01/02 00:38:20;;;;;;;0.45;0.45;;;;;;;1.82;64.29;99520.98;1754995;80;20966;-39
2022/01/02 00:40:49;;;;;;;1.40;0.60;;;;;;;1.81;64.37;99531.97;1772945;81;21505;-39
2022/01/02 00:43:22;;;;;;;1.05;0.75;;;;;;;1.78;64.62;99529.36;1757607;81;21158;-39
2022/01/02 00:45:51;;;;;;;0.80;0.70;;;;;;;1.43;64.76;99477.92;1750102;81;21559;-39
2022/01/02 00:48:29;;;;;;;0.82;0.70;;;;;;;1.78;65.02;99533.91;1764955;81;21024;-39
2022/01/02 00:51:07;;;;;;;0.60;0.60;;;;;;;1.82;65.14;99526.33;1755781;80;21021;-39
2022/01/02 00:53:36;;;;;;;0.70;0.62;;;;;;;1.87;65.23;99532.12;1769879;81;21009;-39
2022/01/02 00:56:04;;;;;;;0.72;0.60;;;;;;;1.87;65.45;99528.91;1772508;79;21131;-39
2022/01/02 00:58:54;;;;;;;0.60;0.60;;;;;;;1.91;65.28;99522.41;1772546;81;20926;-39
2022/01/02 01:01:28;;;;;;;1.27;0.70;;;;;;;1.89;64.28;99521.36;1771419;80;26487;-39
2022/01/02 01:03:55;;;;;;;0.53;0.42;;;;;;;1.86;64.41;99523.31;1752285;80;21041;-39
2022/01/02 01:06:27;;;;;;;1.02;0.60;;;;;;;1.85;63.38;99523.59;1772919;80;21594;-39
2022/01/02 01:08:58;;;;;;;0.80;0.80;;;;;;;1.83;63.16;99538.62;1772639;79;20931;-39
2022/01/02 01:11:27;;;;;;;0.62;0.40;;;;;;;1.82;61.98;99541.03;1787599;79;20954;-39
2022/01/02 01:13:55;;;;;;;0.60;0.60;;;;;;;1.78;61.09;99542.72;1770619;79;21523;-39
2022/01/02 01:16:22;;;;;;;0.42;0.40;;;;;;;1.79;61.87;99546.19;1770610;81;20982;-39
2022/01/02 01:18:49;;;;;;;0.65;0.57;;;;;;;1.78;62.29;99546.73;1763253;79;21637;-39
2022/01/02 01:21:17;;;;;;;0.95;0.60;;;;;;;1.78;61.86;99548.61;1745606;81;21139;-39
2022/01/02 01:23:43;;;;;;;0.62;0.62;;;;;;;1.77;62.29;99555.03;1750834;81;21013;-39
2022/01/02 01:26:11;;;;;;;0.53;0.53;;;;;;;1.77;62.98;99553.16;1761149;81;20953;-39
2022/01/02 01:28:39;;;;;;;1.75;0.70;;;;;;;1.82;63.06;99565.63;1767219;79;21369;-39
2022/01/02 01:31:08;;;;;;;1.10;0.80;;;;;;;1.77;62.74;99555.83;1743275;81;21005;-39
2022/01/02 01:33:35;;;;;;;1.20;0.50;;;;;;;1.75;62.98;99566.81;1749152;80;21086;-39
2022/01/02 01:36:02;;;;;;;0.50;0.50;;;;;;;1.76;62.84;99571.61;1757608;79;21006;-39
2022/01/02 01:38:30;;;;;;;1.00;0.90;;;;;;;1.76;62.40;99575.63;1761672;79;21504;-39
2022/01/02 01:41:09;;;;;;;1.00;0.80;;;;;;;1.74;62.67;99575.91;1742494;81;21088;-39
2022/01/02 01:43:51;;;;;;;0.50;0.50;;;;;;;1.78;63.22;99581.48;1748613;81;21038;-39
2022/01/02 01:46:07;;;;;;;0.60;0.60;;;;;;;1.79;63.60;99579.60;1745379;81;21802;-39
2022/01/02 01:48:34;;;;;;;0.70;0.60;;;;;;;1.79;64.13;99590.30;1762394;81;20937;-39
2022/01/02 01:51:01;;;;;;;0.57;0.57;;;;;;;1.78;63.93;99594.05;1768535;81;20910;-39
2022/01/02 01:53:27;;;;;;;1.25;0.80;;;;;;;1.74;64.06;99597.29;1770708;80;21049;-40
2022/01/02 01:55:56;;;;;;;0.72;0.62;;;;;;;1.73;63.61;99589.05;1772972;79;21779;-39
2022/01/02 01:58:23;;;;;;;0.95;0.60;;;;;;;1.69;62.82;99604.06;1750632;81;21096;-39
2022/01/02 02:00:50;;;;;;;1.30;0.60;;;;;;;1.65;61.92;99599.60;1741013;81;20914;-39
2022/01/02 02:03:20;;;;;;;0.80;0.80;;;;;;;1.60;61.69;99604.50;1754818;80;20996;-39
2022/01/02 02:05:47;;;;;;;0.60;0.60;;;;;;;1.54;61.47;99607.03;1742451;81;21022;-39
2022/01/02 02:08:16;;;;;;;0.93;0.82;;;;;;;1.52;61.30;99621.75;1755807;81;21041;-39
2022/01/02 02:10:46;;;;;;;0.65;0.65;;;;;;;1.45;60.27;99621.35;1749434;79;21819;-39
2022/01/02 02:13:12;;;;;;;0.80;0.57;;;;;;;1.34;59.51;99607.91;1709691;82;21050;-38
2022/01/02 02:15:42;;;;;;;0.60;0.60;;;;;;;1.31;60.09;99618.61;1707486;82;21039;-39
2022/01/02 02:18:09;;;;;;;2.47;0.78;;;;;;;1.24;59.92;99630.22;1733825;81;21068;-39
2022/01/02 02:20:37;;;;;;;0.60;0.60;;;;;;;1.19;59.69;99627.63;1732432;82;21024;-39
2022/01/02 02:23:06;;;;;;;1.92;0.72;;;;;;;1.15;60.08;99623.42;1697698;83;21877;-39
2022/01/02 02:25:36;;;;;;;0.82;0.80;;;;;;;1.10;60.53;99630.17;1704092;82;21101;-39
2022/01/02 02:28:05;;;;;;;;;;;;;;;1.09;60.92;99627.25;1720166;82;21033;-39
2022/01/02 02:30:34;;;;;;;0.72;0.70;;;;;;;1.10;60.84;99628.84;1726815;81;20157;-39
2022/01/02 02:33:03;;;;;;;1.05;0.90;;;;;;;1.02;60.93;99625.47;1721224;82;21033;-39
2022/01/02 02:35:32;;;;;;;0.88;0.70;;;;;;;1.01;60.95;99631.92;1732686;82;21113;-39
2022/01/02 02:37:58;;;;;;;2.08;0.60;;;;;;;1.03;61.27;99634.28;1684380;82;20993;-39
2022/01/02 02:40:28;;;;;;;1.65;0.60;;;;;;;1.03;61.13;99640.41;1727851;82;20998;-39
2022/01/02 02:43:01;;;;;;;0.62;0.60;;;;;;;1.00;61.16;99642.34;1736598;82;21594;-39
2022/01/02 02:51:15;;;;;;;0.82;0.78;;;;;;;0.94;61.37;99660.84;1735671;82;21566;-39
2022/01/02 02:53:44;;;;;;;0.72;0.72;;;;;;;0.89;61.13;99667.58;1742416;82;21016;-39
2022/01/02 02:58:49;;;;;;;1.17;0.70;;;;;;;0.94;61.50;99654.70;1734107;82;21045;-39
2022/01/02 03:01:19;;;;;;;1.15;0.88;;;;;;;0.96;61.38;99667.23;1704876;82;21747;-38
2022/01/02 03:03:47;;;;;;;0.80;0.57;;;;;;;0.95;61.07;99674.44;1716208;82;21547;-39
2022/01/02 03:06:15;;;;;;;1.87;0.80;;;;;;;0.95;61.21;99672.31;1740908;81;21020;-39
2022/01/02 03:08:44;;;;;;;1.98;0.80;;;;;;;0.96;61.07;99669.36;1736659;82;21049;-39
2022/01/02 03:11:15;;;;;;;2.12;0.70;;;;;;;0.96;60.73;99671.23;1718453;82;21132;-39
2022/01/02 03:13:43;;;;;;;0.60;0.60;;;;;;;0.94;61.02;99668.84;1716563;81;21131;-39
2022/01/02 03:16:09;;;;;;;1.00;0.80;;;;;;;0.92;59.90;99665.66;1712026;82;21802;-39
2022/01/02 03:18:37;;;;;;;0.70;0.68;;;;;;;0.88;60.24;99673.45;1740444;82;20960;-39
2022/01/02 03:21:04;;;;;;;0.70;0.70;;;;;;;0.87;60.42;99675.09;1756884;80;20993;-39
2022/01/02 03:23:31;;;;;;;0.90;0.80;;;;;;;0.85;60.36;99685.25;1751619;79;21009;-39
2022/01/02 03:25:59;;;;;;;0.98;0.88;;;;;;;0.81;59.82;99693.05;1750150;80;22026;-39
2022/01/02 03:28:25;;;;;;;0.82;0.68;;;;;;;0.41;59.75;99632.19;1764453;79;21033;-39
2022/01/02 03:30:53;;;;;;;0.70;0.62;;;;;;;0.80;59.94;99698.66;1784159;79;21010;-39
2022/01/02 03:33:20;;;;;;;1.20;0.68;;;;;;;0.80;59.53;99708.80;1761182;79;20973;-39
2022/01/02 03:35:47;;;;;;;0.80;0.78;;;;;;;0.71;59.45;99705.18;1775398;80;20990;-39
2022/01/02 03:38:14;;;;;;;0.85;0.70;;;;;;;0.69;59.56;99711.33;1773297;80;21889;-39
2022/01/02 03:40:42;;;;;;;0.60;0.60;;;;;;;0.66;59.74;99721.78;1749984;82;21012;-38
2022/01/02 03:43:08;;;;;;;2.45;0.72;;;;;;;0.58;59.64;99702.42;1757222;80;21008;-38
2022/01/02 03:45:36;;;;;;;0.90;0.80;;;;;;;0.66;60.02;99719.91;1750213;80;21024;-39
2022/01/02 03:48:04;;;;;;;0.95;0.72;;;;;;;0.62;59.69;99721.56;1771692;80;21541;-39
2022/01/02 03:50:31;;;;;;;0.68;0.68;;;;;;;0.57;59.52;99727.50;1779556;80;21139;-38
2022/01/02 03:52:58;;;;;;;0.62;0.62;;;;;;;0.52;59.61;99731.02;1773325;80;21515;-39
2022/01/02 03:55:25;;;;;;;0.85;0.82;;;;;;;0.49;59.81;99740.11;1782820;80;20980;-38
2022/01/02 03:57:52;;;;;;;1.57;0.55;;;;;;;0.48;60.14;99745.20;1788974;80;20999;-38
2022/01/02 04:00:19;;;;;;;0.93;0.80;;;;;;;0.46;60.08;99742.02;1788413;80;20944;-39
2022/01/02 04:02:47;;;;;;;0.90;0.90;;;;;;;0.42;59.82;99751.93;1785137;80;21806;-38
2022/01/02 04:08:12;;;;;;;2.08;1.12;;;;;;;0.35;59.98;99755.45;1813768;79;22739;-38
2022/01/02 04:10:40;;;;;;;1.22;0.85;;;;;;;0.22;60.13;99766.80;1784676;80;21078;-37
2022/01/02 04:13:06;;;;;;;1.42;0.78;;;;;;;0.20;60.39;99753.47;1787589;80;21142;-37
2022/01/02 04:15:34;;;;;;;1.07;0.88;;;;;;;0.17;60.96;99764.17;1785305;80;20965;-38
2022/01/02 04:18:02;;;;;;;0.85;0.85;;;;;;;0.18;60.51;99762.30;1785102;80;20981;-37
2022/01/02 04:20:29;;;;;;;1.37;0.98;;;;;;;0.14;60.69;99759.41;1778703;80;20926;-38
2022/01/02 04:22:57;;;;;;;0.90;0.70;;;;;;;0.17;60.46;99766.84;1779178;80;21024;-37
2022/01/02 04:25:25;;;;;;;0.70;0.70;;;;;;;0.17;60.54;99776.17;1771993;80;21082;-38
2022/01/02 04:27:52;;;;;;;0.90;0.85;;;;;;;0.18;60.64;99779.09;1786867;80;21049;-37
2022/01/02 04:30:19;;;;;;;0.80;0.80;;;;;;;0.15;60.64;99784.97;1784374;80;20980;-37
2022/01/02 04:32:48;;;;;;;0.95;0.80;;;;;;;0.15;60.99;99792.97;1774825;80;21024;-38
2022/01/02 04:35:15;;;;;;;0.70;0.70;;;;;;;0.11;60.90;99785.28;1784624;80;20998;-38
2022/01/02 04:37:43;;;;;;;1.42;0.90;;;;;;;0.12;61.01;99787.41;1772814;79;21160;-38
2022/01/02 04:40:11;;;;;;;1.92;0.80;;;;;;;0.13;61.22;99795.67;1787315;80;20968;-38
2022/01/02 04:42:38;;;;;;;0.90;0.90;;;;;;;0.16;61.26;99806.56;1786779;80;21484;-38
2022/01/02 04:45:07;;;;;;;0.82;0.82;;;;;;;0.15;61.39;99806.84;1771351;80;20965;-37
2022/01/02 04:47:35;;;;;;;;;;;;;;;0.14;61.35;99812.73;1778289;80;21041;-38
2022/01/02 04:50:04;;;;;;;1.52;1.00;;;;;;;0.10;61.38;99816.23;1787640;80;21200;-38
2022/01/02 04:52:33;;;;;;;0.88;0.80;;;;;;;0.00;61.79;99817.11;1755687;80;21425;-37
2022/01/02 04:55:00;;;;;;;1.62;1.10;;;;;;;-0.01;62.00;99820.84;1776938;80;21483;-37
2022/01/02 04:57:28;;;;;;;2.60;1.70;;;;;;;0.00;61.89;99823.78;1757999;79;20977;-38
2022/01/02 04:59:54;;;;;;;2.05;1.40;;;;;;;-0.02;62.13;99828.58;1784706;80;21512;-38
2022/01/02 05:02:21;;;;;;;1.75;0.85;;;;;;;-0.02;62.07;99822.71;1782924;80;21069;-37
2022/01/02 05:04:49;;;;;;;1.12;1.00;;;;;;;-0.03;61.96;99834.44;1782864;80;20981;-38
2022/01/02 05:07:16;;;;;;;1.02;0.93;;;;;;;-0.03;62.00;99830.98;1780063;80;21021;-37
2022/01/02 05:09:43;;;;;;;1.00;0.90;;;;;;;-0.04;62.26;99829.38;1778221;79;20968;-38
2022/01/02 05:12:11;;;;;;;1.00;0.90;;;;;;;-0.03;62.29;99824.31;1745929;80;21445;-38
2022/01/02 05:14:38;;;;;;;1.15;1.00;;;;;;;-0.05;62.22;99821.92;1778546;79;21105;-37
2022/01/02 05:17:05;;;;;;;1.00;0.90;;;;;;;-0.07;62.12;99814.75;1778795;79;20977;-37
2022/01/02 05:19:32;;;;;;;1.05;0.90;;;;;;;-0.14;62.15;99823.59;1770524;79;21014;-37
2022/01/02 05:21:59;;;;;;;0.70;0.70;;;;;;;-0.21;62.36;99823.66;1751581;82;20958;-37
2022/01/02 05:24:26;;;;;;;1.52;1.32;;;;;;;-0.21;62.48;99827.65;1796807;79;21016;-37
2022/01/02 05:26:55;;;;;;;0.95;0.82;;;;;;;-0.20;62.27;99830.58;1816101;79;21826;-38
2022/01/02 05:29:23;;;;;;;1.70;1.20;;;;;;;-0.22;62.31;99828.72;1758378;79;21037;-37
2022/01/02 05:31:51;;;;;;;1.12;0.98;;;;;;;-0.25;62.24;99835.94;1758822;80;21035;-37
2022/01/02 05:34:18;;;;;;;1.20;0.90;;;;;;;-0.30;62.10;99834.64;1758354;80;21068;-37
2022/01/02 05:36:48;;;;;;;1.52;1.10;;;;;;;-0.34;62.07;99834.94;1730953;82;21056;-38
2022/01/02 05:39:18;;;;;;;1.57;0.90;;;;;;;-0.39;62.22;99841.09;1737127;82;21142;-37
2022/01/02 05:41:46;;;;;;;1.10;1.00;;;;;;;-0.38;62.31;99844.52;1719117;82;21026;-37
2022/01/02 05:44:14;;;;;;;2.22;1.30;;;;;;;-0.42;62.47;99855.47;1780209;80;21004;-37
2022/01/02 05:46:41;;;;;;;2.80;1.17;;;;;;;-0.45;62.37;99860.30;1755118;80;21051;-37
2022/01/02 05:49:08;;;;;;;1.22;1.00;;;;;;;-0.49;62.21;99863.25;1765871;80;21030;-37
2022/01/02 05:51:35;;;;;;;1.12;1.02;;;;;;;-0.47;62.18;99868.28;1774026;80;21099;-37
2022/01/02 05:54:03;;;;;;;1.75;1.20;;;;;;;-0.46;62.21;99877.88;1776563;80;21519;-38
2022/01/02 05:56:31;;;;;;;1.62;1.20;;;;;;;-0.46;61.71;99876.01;1774128;80;21024;-37
2022/01/02 05:58:58;;;;;;;2.08;1.20;;;;;;;-0.47;61.79;99875.73;1764644;80;21516;-37
2022/01/02 06:01:25;;;;;;;1.67;1.20;;;;;;;-0.46;61.55;99874.67;1763185;80;21535;-37
2022/01/02 06:03:52;;;;;;;2.10;1.30;;;;;;;-0.50;61.62;99881.63;1772028;80;21085;-38
2022/01/02 06:06:19;;;;;;;1.60;1.10;;;;;;;-0.53;61.63;99878.16;1783361;80;21539;-38
2022/01/02 06:08:47;;;;;;;2.08;1.30;;;;;;;-0.54;61.71;99885.91;1770693;80;20992;-38
2022/01/02 06:11:14;;;;;;;2.40;1.30;;;;;;;-0.52;61.73;99882.95;1763386;80;21084;-38
2022/01/02 06:13:42;;;;;;;2.45;1.57;;;;;;;-0.53;61.46;99886.15;1774050;80;21506;-37
2022/01/02 06:16:11;;;;;;;1.55;1.10;;;;;;;-0.54;61.33;99881.12;1788579;80;21156;-38
2022/01/02 06:18:39;;;;;;;1.62;1.20;;;;;;;-0.57;61.49;99888.30;1707751;83;21084;-37
2022/01/02 06:21:07;;;;;;;1.62;1.10;;;;;;;-0.54;61.37;99880.59;1743207;82;21054;-38
2022/01/02 06:23:34;;;;;;;2.67;1.30;;;;;;;-0.53;60.41;99880.82;1714634;82;21092;-38
2022/01/02 06:26:00;;;;;;;1.80;1.50;;;;;;;-0.54;60.27;99881.12;1708452;83;21059;-37
2022/01/02 06:28:27;;;;;;;1.72;1.17;;;;;;;-0.55;60.36;99876.32;1765216;80;21762;-37
2022/01/02 06:30:54;;;;;;;2.02;1.20;;;;;;;-0.56;60.29;99881.38;1736851;82;20926;-37
2022/01/02 06:33:21;;;;;;;1.47;1.10;;;;;;;-0.56;60.48;99891.23;1732431;82;21057;-37
2022/01/02 06:35:49;;;;;;;2.77;1.30;;;;;;;-0.56;58.93;99885.38;1747220;80;20985;-37
2022/01/02 06:38:20;;;;;;;2.02;1.30;;;;;;;-0.63;59.07;99886.19;1773237;80;20978;-38
2022/01/02 06:40:49;;;;;;;3.27;1.40;;;;;;;-0.68;59.20;99894.22;1775533;80;21926;-37
2022/01/02 06:43:16;;;;;;;3.55;1.55;;;;;;;-0.67;58.80;99908.30;1773735;80;20989;-38
2022/01/02 06:45:44;;;;;;;1.60;1.22;;;;;;;-0.70;58.44;99899.55;1769843;80;20930;-37
2022/01/02 06:48:12;;;;;;;2.40;1.40;;;;;;;-0.71;57.37;99907.27;1687581;85;21057;-38
2022/01/02 06:50:39;;;;;;;1.87;1.30;;;;;;;-0.79;56.74;99895.32;1776266;80;21033;-38
2022/01/02 06:53:06;;;;;;;2.22;1.65;;;;;;;-0.78;56.45;99900.91;1778619;80;21196;-37
2022/01/02 06:55:33;;;;;;;2.72;1.80;;;;;;;-0.83;56.36;99900.92;1766307;80;21020;-37
2022/01/02 06:58:00;;;;;;;2.08;1.40;;;;;;;-0.81;56.69;99908.09;1756364;80;20982;-37
2022/01/02 07:00:26;;;;;;;2.12;1.45;;;;;;;-0.79;56.50;99900.64;1760940;80;20958;-37
2022/01/02 07:02:53;;;;;;;3.10;1.80;;;;;;;-0.78;56.40;99907.56;1696600;82;21034;-37
2022/01/02 07:05:20;;;;;;;3.83;1.55;;;;;;;-0.90;56.19;99888.42;1777969;79;21108;-37
2022/01/02 07:07:48;;;;;;;2.87;1.80;;;;;;;-0.72;56.33;99914.45;1773588;80;20949;-38
2022/01/02 07:10:16;;;;;;;2.55;1.62;;;;;;;-0.67;56.23;99913.09;1770954;79;20922;-37
2022/01/02 07:12:43;;;;;;;2.20;1.62;;;;;;;-0.64;56.37;99920.56;1774720;80;21550;-37
2022/01/02 07:15:10;;;;;;;2.92;1.70;;;;;;;-0.57;56.30;99925.58;1771262;80;21492;-37
2022/01/02 07:17:38;;;;;;;2.40;1.90;;;;;;;-0.53;56.44;99925.30;1777335;80;21116;-37
2022/01/02 07:20:05;;;;;;;1.77;1.42;;;;;;;-0.48;56.70;99930.06;1768741;80;20996;-37
2022/01/02 07:22:32;;;;;;;1.60;1.27;;;;;;;-0.42;56.88;99926.86;1773297;80;21020;-37
2022/01/02 07:24:59;;;;;;;1.98;1.35;;;;;;;-0.41;56.56;99931.12;1771649;80;21007;-37
2022/01/02 07:27:27;;;;;;;1.90;1.17;;;;;;;-0.40;56.24;99933.25;1773297;79;21014;-37
2022/01/02 07:29:56;;;;;;;1.95;1.37;;;;;;;-0.36;55.65;99951.61;1767980;80;21800;-38
2022/01/02 07:32:23;;;;;;;2.40;1.67;;;;;;;-0.34;55.43;99965.47;1771876;80;21014;-38
2022/01/02 07:34:49;;;;;;;2.40;1.90;;;;;;;-0.33;54.45;99957.18;1768400;80;20982;-37
2022/01/02 07:37:16;;;;;;;2.08;1.30;;;;;;;-0.36;54.20;99967.06;1764050;80;21030;-37
2022/01/02 07:39:43;;;;;;;2.98;1.45;;;;;;;-0.39;53.77;99961.48;1760057;80;21041;-38
2022/01/02 07:42:09;;;;;;;1.60;1.10;;;;;;;-0.40;54.01;99955.36;1765317;80;21827;-37
2022/01/02 07:44:38;;;;;;;1.50;1.20;;;;;;;-0.38;53.91;99947.87;1752519;80;20977;-37
2022/01/02 07:47:06;;;;;;;1.40;1.20;;;;;;;-0.33;53.41;99947.05;1772369;80;20936;-37
2022/01/02 07:49:35;;;;;;;2.70;1.40;;;;;;;-0.35;53.49;99949.22;1764143;80;21031;-37
2022/01/02 07:52:01;;;;;;;3.25;1.60;;;;;;;-0.34;53.35;99950.81;1751950;80;21011;-37
2022/01/02 07:54:28;;;;;;;1.20;1.10;;;;;;;-0.33;53.25;99944.39;1763372;80;21125;-37
2022/01/02 07:56:54;;;;;;;1.32;1.20;;;;;;;-0.30;53.39;99944.66;1763448;80;21033;-37
2022/01/02 07:59:21;;;;;;;2.00;1.40;;;;;;;-0.25;53.19;99946.51;1763426;80;21493;-37
2022/01/02 08:01:47;;;;;;;1.20;1.00;;;;;;;-0.16;53.31;99932.87;1760811;80;20951;-37
2022/01/02 08:04:14;;;;;;;2.65;1.20;;;;;;;-0.10;53.20;99931.78;1771953;79;21084;-37
2022/01/02 08:06:41;;;;;;;1.82;1.00;;;;;;;-0.03;52.99;99937.05;1764828;79;21218;-37
2022/01/02 08:09:08;;;;;;;1.35;1.25;;;;;;;0.10;53.06;99939.63;1762932;80;21608;-38
2022/01/02 08:11:34;;;;;;;1.52;1.25;;;;;;;0.29;52.80;99941.91;1758591;80;21540;-38
2022/01/02 08:14:00;;;;;;;1.30;1.17;;;;;;;0.47;52.48;99935.66;1757086;80;21054;-37
2022/01/02 08:16:27;;;;;;;1.82;1.10;;;;;;;0.68;52.14;99926.40;1766534;80;21770;-37
2022/01/02 08:18:54;;;;;;;2.55;1.30;;;;;;;0.83;51.33;99936.94;1745504;80;21798;-38
2022/01/02 08:21:21;;;;;;;1.55;1.30;;;;;;;0.88;50.05;99933.69;1754682;79;21563;-37
2022/01/02 08:23:47;;;;;;;2.10;1.32;;;;;;;0.87;49.34;99932.66;1716888;82;21524;-38
2022/01/02 08:26:14;;;;;;;3.65;1.15;;;;;;;0.86;49.83;99937.20;1773798;80;21530;-38
2022/01/02 08:28:41;;;;;;;2.02;1.37;;;;;;;0.97;49.49;99937.88;1754321;80;21000;-38
2022/01/02 08:31:08;;;;;;;2.35;1.32;;;;;;;1.10;49.35;99926.55;1746058;80;21109;-37
2022/01/02 08:33:35;;;;;;;1.42;1.12;;;;;;;1.26;49.37;99931.97;1737184;82;20960;-38
2022/01/02 08:36:05;;;;;;;3.02;1.27;;;;;;;1.40;48.22;99920.09;1752796;80;21027;-38
2022/01/02 08:38:31;;;;;;;1.98;1.30;;;;;;;1.49;47.74;99917.03;1763378;80;21474;-38
2022/01/02 08:40:58;;;;;;;2.85;1.20;;;;;;;1.60;46.86;99911.00;1744413;80;20994;-38
2022/01/02 08:43:25;;;;;;;1.85;1.25;;;;;;;1.69;46.34;99909.30;1770427;80;21110;-38
2022/01/02 08:45:51;;;;;;;2.37;1.20;;;;;;;1.79;45.87;99913.19;1773918;80;20883;-38
2022/01/02 08:48:18;;;;;;;5.20;2.95;;;;;;;1.83;45.45;99906.17;1763134;80;20930;-38
2022/01/02 08:50:46;;;;;;;4.50;2.45;;;;;;;1.79;44.75;99913.19;1766033;80;20934;-38
2022/01/02 08:53:13;;;;;;;8.58;5.15;;;;;;;1.76;44.79;99921.76;1773469;80;20986;-38
2022/01/02 08:55:40;;;;;;;2.45;1.70;;;;;;;1.77;44.82;99926.57;1779769;80;21097;-38
2022/01/02 08:58:12;;;;;;;1.50;1.17;;;;;;;1.76;44.78;99928.44;1779333;80;21004;-38
2022/01/02 09:00:36;;;;;;;1.27;1.10;;;;;;;1.81;44.97;99928.38;1770119;80;21014;-38
2022/01/02 09:03:03;;;;;;;1.98;1.20;;;;;;;1.89;45.29;99921.05;1762022;80;20944;-38
2022/01/02 09:05:32;;;;;;;1.80;1.30;;;;;;;2.05;44.12;99915.74;1765327;80;21700;-38
2022/01/02 09:07:58;;;;;;;3.47;1.32;;;;;;;2.18;44.42;99920.36;1776474;80;21084;-38
2022/01/02 09:10:25;;;;;;;2.25;1.30;;;;;;;2.30;44.01;99925.82;1771126;80;20978;-38
2022/01/02 09:12:53;;;;;;;1.95;1.22;;;;;;;2.28;43.94;99929.31;1758329;80;20941;-38
2022/01/02 09:15:20;;;;;;;1.72;1.30;;;;;;;2.33;44.29;99927.36;1779175;80;21017;-38
2022/01/02 09:17:47;;;;;;;1.35;1.00;;;;;;;2.47;44.85;99927.44;1771224;80;21060;-38
2022/01/02 09:20:14;;;;;;;1.40;1.10;;;;;;;2.60;44.13;99929.36;1771839;80;21076;-38
2022/01/02 09:22:43;;;;;;;1.02;0.88;;;;;;;2.63;43.18;99923.41;1761164;80;20975;-38
2022/01/02 09:25:10;;;;;;;2.10;1.10;;;;;;;2.57;43.56;99925.37;1776410;80;20977;-38
2022/01/02 09:27:39;;;;;;;1.00;0.90;;;;;;;2.64;43.88;99925.01;1757121;80;21032;-38
2022/01/02 09:30:08;;;;;;;1.02;0.90;;;;;;;2.71;42.98;99934.78;1772734;80;21080;-38
2022/01/02 09:32:36;;;;;;;1.45;0.90;;;;;;;2.71;42.18;99936.69;1752249;80;21031;-38
2022/01/02 09:35:05;;;;;;;2.02;1.35;;;;;;;2.68;42.63;99938.05;1760592;80;20994;-38
2022/01/02 09:37:34;;;;;;;1.65;1.02;;;;;;;2.65;42.43;99938.66;1770919;80;21088;-38
2022/01/02 09:40:02;;;;;;;1.00;0.90;;;;;;;2.69;42.81;99941.53;1765141;80;21238;-38
2022/01/02 09:42:30;;;;;;;1.22;1.02;;;;;;;2.63;42.98;99934.92;1777718;79;22194;-38
2022/01/02 09:44:57;;;;;;;1.95;1.37;;;;;;;2.57;44.24;99933.94;1742864;80;21471;-38
2022/01/02 09:47:23;;;;;;;1.55;1.10;;;;;;;2.60;44.85;99930.70;1764743;80;21550;-39
2022/01/02 09:49:50;;;;;;;1.20;1.10;;;;;;;2.61;43.96;99928.28;1776201;80;21582;-39
2022/01/02 09:52:18;;;;;;;1.20;1.00;;;;;;;2.60;43.81;99936.85;1772063;80;21033;-38
2022/01/02 09:54:45;;;;;;;1.90;1.10;;;;;;;2.66;43.88;99931.42;1777092;80;21080;-38
2022/01/02 09:57:12;;;;;;;1.10;0.85;;;;;;;2.73;43.75;99933.95;1768050;80;21184;-38
2022/01/02 09:59:39;;;;;;;1.12;0.82;;;;;;;2.81;44.24;99922.56;1769882;80;21053;-38
2022/01/02 10:02:07;;;;;;;1.30;0.80;;;;;;;2.95;43.44;99925.30;1776110;80;21023;-38
2022/01/02 10:04:41;;;;;;;4.17;0.98;;;;;;;3.04;43.07;99910.92;1780297;80;21115;-39
2022/01/02 10:07:31;;;;;;;1.67;1.17;;;;;;;3.19;43.16;99907.17;1760115;80;21061;-38
2022/01/02 10:09:58;;;;;;;1.50;1.10;;;;;;;3.32;42.02;99905.57;1743079;82;21148;-38
2022/01/02 10:12:31;;;;;;;1.62;1.22;;;;;;;3.47;42.90;99900.71;1756937;80;21001;-38
2022/01/02 10:15:15;;;;;;;1.60;1.20;;;;;;;3.66;43.08;99905.95;1753276;80;22246;-38
2022/01/02 10:18:06;;;;;;;1.12;1.02;;;;;;;3.81;41.83;99905.63;1758284;80;20982;-39
2022/01/02 10:20:43;;;;;;;1.02;0.93;;;;;;;3.74;41.71;99909.26;1746869;80;21012;-39
2022/01/02 10:23:20;;;;;;;2.95;1.10;;;;;;;3.51;41.98;99900.90;1767463;80;21153;-38
2022/01/02 10:25:52;;;;;;;2.05;1.25;;;;;;;3.33;43.59;99905.28;1755526;80;20910;-38
2022/01/02 10:28:40;;;;;;;1.37;1.00;;;;;;;3.33;43.87;99905.28;1773060;80;21026;-39
2022/01/02 10:31:13;;;;;;;1.75;1.22;;;;;;;3.32;42.99;99902.89;1790408;80;21689;-38
2022/01/02 10:34:02;;;;;;;3.30;1.80;;;;;;;3.33;42.75;99891.09;1707373;83;21023;-38
2022/01/02 10:36:34;;;;;;;2.50;1.70;;;;;;;3.37;42.95;99898.23;1773776;80;21147;-38
2022/01/02 10:39:13;;;;;;;2.85;1.60;;;;;;;3.54;43.29;99888.77;1773895;80;20966;-38
2022/01/02 10:41:45;;;;;;;1.70;1.30;;;;;;;3.80;43.12;99891.17;1773771;80;20965;-38
2022/01/02 10:44:31;;;;;;;3.30;1.70;;;;;;;3.94;41.96;99897.30;1773358;80;21515;-38
2022/01/02 10:47:18;;;;;;;2.85;1.80;;;;;;;3.99;42.69;99903.89;1774373;80;21048;-39
2022/01/02 10:50:03;;;;;;;2.50;2.12;;;;;;;4.11;43.33;99904.72;1771365;80;21816;-39
2022/01/02 10:52:40;;;;;;;2.40;1.55;;;;;;;4.26;42.95;99904.37;1733341;82;21021;-39
2022/01/02 10:55:23;;;;;;;1.40;1.30;;;;;;;4.30;42.37;99900.77;1745106;80;22068;-39
2022/01/02 10:57:52;;;;;;;1.67;1.30;;;;;;;4.26;41.26;99892.30;1752782;80;21041;-38
2022/01/02 11:00:22;;;;;;;1.60;1.30;;;;;;;4.14;41.29;99887.45;1775152;79;21065;-38
2022/01/02 11:02:49;;;;;;;2.37;1.30;;;;;;;4.05;41.67;99888.48;1784245;79;21146;-38
2022/01/02 11:05:20;;;;;;;2.33;1.35;;;;;;;4.06;42.91;99884.70;1768501;79;21033;-38
2022/01/02 11:07:50;;;;;;;1.07;0.98;;;;;;;4.28;42.46;99883.38;1778964;80;20989;-39
2022/01/02 11:10:22;;;;;;;2.20;1.37;;;;;;;4.52;41.91;99878.48;1777340;80;20973;-39
2022/01/02 11:12:52;;;;;;;1.20;1.10;;;;;;;4.75;41.42;99885.41;1774740;79;21096;-39
2022/01/02 11:15:21;;;;;;;1.70;1.17;;;;;;;4.94;39.80;99887.11;1779405;80;21137;-39
2022/01/02 11:17:49;;;;;;;1.32;1.10;;;;;;;4.92;39.93;99882.58;1779226;80;21028;-38
2022/01/02 11:20:26;;;;;;;2.58;1.42;;;;;;;4.86;40.96;99886.49;1761535;80;20922;-39
2022/01/02 11:23:07;;;;;;;1.45;1.00;;;;;;;4.93;41.59;99880.14;1757979;80;21372;-39
2022/01/02 11:26:05;;;;;;;2.90;1.65;;;;;;;5.06;41.08;99873.32;1752393;80;21482;-42
2022/01/02 11:28:42;;;;;;;1.75;1.55;;;;;;;5.23;40.98;99864.52;1756570;80;21480;-41
2022/01/02 11:31:09;;;;;;;1.75;1.42;;;;;;;5.40;39.60;99855.72;1748660;82;21017;-42
2022/01/02 11:33:40;;;;;;;1.85;1.40;;;;;;;5.54;39.26;99860.41;1762926;80;21043;-42
2022/01/02 11:36:34;;;;;;;1.70;1.35;;;;;;;5.54;38.55;99865.25;1782634;80;21041;-42
2022/01/02 11:39:07;;;;;;;3.15;1.40;;;;;;;5.33;39.94;99852.13;1782317;80;21453;-42
2022/01/02 11:41:50;;;;;;;2.80;1.70;;;;;;;5.37;40.65;99854.47;1776158;80;21105;-39
2022/01/02 11:47:47;;;;;;;1.65;1.40;;;;;;;5.63;40.64;99838.36;1807762;78;22720;-42
2022/01/02 11:50:37;;;;;;;1.80;1.37;;;;;;;5.64;40.76;99840.74;1788291;80;21015;-43
2022/01/02 11:53:28;;;;;;;2.27;1.40;;;;;;;5.79;40.19;99836.00;1768708;80;21095;-42
2022/01/02 11:55:49;;;;;;;2.10;1.40;;;;;;;5.91;39.51;99836.19;1780613;80;21013;-43
2022/01/02 11:58:47;;;;;;;2.22;1.30;;;;;;;6.04;38.17;99822.59;1715570;83;21104;-41
2022/01/02 12:01:14;;;;;;;1.80;1.20;;;;;;;5.98;37.28;99827.09;1718455;82;20961;-41
2022/01/02 12:03:46;;;;;;;1.60;1.00;;;;;;;5.65;37.90;99820.81;1679989;84;21028;-40